Saint-Simon-De-Rimouski, Canada
Current Conditions -  °F | °C
As of 4:00 AM on Friday 24 Oct 2014 (Local Time) from CYYY Reporting Station
Clear Clear  
Wind Chill: 32°   Ceiling: Unl
Heat Index: 36°   Visibility: 30mi
Dew Point: 34°   Wind: 5mph
Humidity: 93%   Direction: 60°ENE
Pressure: 29.99"   Gusts: NA
Location:  48.2°N, 69.02°W
Report Text: CYYY 240800Z 06004KT 30SM SKC 02/01 A2999 RMK SLP158
Loading
Personal Weather Stations






























Interactive Weather Map New forecast layout! Learn more

10-Day Weather Forecast

Advertisements
Track Severe Weather on mobile